Boryslau — ENLB — position and weather

sailwx.info

Track history (hours):
 
Tides and Currents Weather Stations Pressure Air Temp Water Temp Dewpoint Dewpoint Depression Visibility Wind Speed Wind Dir Waves Ship Positions

Boryslau

Last reported at 2016-Dec-18 18:33 UTC. Time now 2017-Jan-20 14:05 UTC.
Position N 44°42' E 022°29'.
Warning: this ship's position is 32 days out of date.

Length 86 m; draft 1.9 m.

Type: Cargo ship. MMSI: 272088700.

Date/timePositionNaut miles runAvg speedWind from/ knotsBaromVisibWave heightAir tempDewpointWater temp
2016-Dec-18 18:33N 44°42' E 022°29'0 0.4
2016-Dec-18 17:33N 44°42' E 022°29'5 5.2
2016-Dec-18 16:33N 44°41' E 022°22'13 5.7
2016-Dec-18 14:20N 44°30' E 022°12'4 4.7
2016-Dec-18 13:33N 44°29' E 022°07'6 5.8
2016-Dec-18 12:33N 44°33' E 022°02'25 4.9
2016-Dec-18 07:20N 44°46' E 021°31'0 0.0
2016-Dec-18 06:30N 44°46' E 021°31'0 0.0
2016-Dec-18 05:30N 44°46' E 021°31'0 0.0
2016-Dec-18 04:33N 44°46' E 021°31'0 0.2
2016-Dec-18 03:33N 44°46' E 021°31'0 0.0
2016-Dec-18 02:33N 44°46' E 021°31'0 0.0
2016-Dec-18 01:33N 44°46' E 021°31'1 0.9
2016-Dec-18 00:33N 44°46' E 021°30'6 5.4
2016-Dec-17 23:22N 44°49' E 021°22'5 6.1
2016-Dec-17 22:33N 44°47' E 021°15'6 6.0
2016-Dec-17 21:33N 44°44' E 021°08'5 5.4
2016-Dec-17 20:33N 44°43' E 021°01'1 1.1
2016-Dec-17 19:34N 44°43' E 020°59'1 1.4
2016-Dec-17 18:33N 44°42' E 020°58'0 0.0
2016-Dec-17 17:33N 44°42' E 020°58'0 0.0
2016-Dec-17 16:33N 44°42' E 020°58'0 0.0
2016-Dec-17 15:33N 44°42' E 020°58'0 0.0
2016-Dec-17 14:33N 44°42' E 020°58'0 0.0
2016-Dec-17 13:33N 44°42' E 020°58'0 0.0
2016-Dec-17 12:33N 44°42' E 020°58'0 0.0
2016-Dec-17 11:33N 44°42' E 020°58'0 0.0
2016-Dec-17 10:34N 44°42' E 020°58'0 0.0
2016-Dec-17 09:33N 44°42' E 020°58'1 1.4
2016-Dec-17 08:33N 44°43' E 020°59'0 0.0
2016-Dec-17 07:33N 44°43' E 020°59'0 0.0
2016-Dec-17 06:33N 44°43' E 020°59'0 0.0
2016-Dec-17 05:33N 44°43' E 020°59'0 0.0
2016-Dec-17 04:33N 44°43' E 020°59'0 0.0
2016-Dec-17 03:22N 44°43' E 020°59'0 0.0
2016-Dec-17 02:33N 44°43' E 020°59'0 0.0
2016-Dec-17 01:33N 44°43' E 020°59'0 0.0
2016-Dec-17 00:33N 44°43' E 020°59'0 0.0
2016-Dec-16 23:33N 44°43' E 020°59'0 0.0
2016-Dec-16 22:34N 44°43' E 020°59'0 0.0
2016-Dec-16 21:33N 44°43' E 020°59'0 0.0
2016-Dec-16 20:33N 44°43' E 020°59'0 0.0
2016-Dec-16 19:33N 44°43' E 020°59'0 0.0
2016-Dec-16 18:33N 44°43' E 020°59'0 0.0
2016-Dec-16 17:33N 44°43' E 020°59'0 0.0
2016-Dec-16 16:33N 44°43' E 020°59'0 0.0
2016-Dec-16 15:34N 44°43' E 020°59'0 0.0
2016-Dec-16 14:28N 44°43' E 020°59'0 0.0
2016-Dec-16 13:33N 44°43' E 020°59'0 0.0
2016-Dec-16 12:33N 44°43' E 020°59'0 0.0
2016-Dec-16 11:33N 44°43' E 020°59'0 0.0
2016-Dec-16 10:33N 44°43' E 020°59'0 0.0
2016-Dec-16 09:33N 44°43' E 020°59'0 0.0
2016-Dec-15 22:33N 44°43' E 020°59'0 0.0
2016-Dec-15 21:33N 44°43' E 020°59'0 0.0
2016-Dec-15 20:33N 44°43' E 020°59'0 0.0
2016-Dec-15 19:33N 44°43' E 020°59'0 0.0
2016-Dec-15 18:33N 44°43' E 020°59'0 0.0
2016-Dec-15 17:33N 44°43' E 020°59'0 0.0
2016-Dec-15 16:33N 44°43' E 020°59'0 0.0
2016-Dec-15 15:33N 44°43' E 020°59'0 0.0
2016-Dec-15 14:34N 44°43' E 020°59'0 0.0
2016-Dec-15 13:33N 44°43' E 020°59'0 0.0
2016-Dec-15 12:33N 44°43' E 020°59'0 0.0
2016-Dec-15 11:33N 44°43' E 020°59'0 0.0
2016-Dec-15 10:33N 44°43' E 020°59'0 0.0
2016-Dec-15 09:33N 44°43' E 020°59'0 0.0
2016-Dec-15 08:33N 44°43' E 020°59'0 0.0
2016-Dec-14 22:27N 44°43' E 020°59'0 0.0
2016-Dec-14 21:33N 44°43' E 020°59'0 0.0
2016-Dec-14 20:34N 44°43' E 020°59'0 0.0
2016-Dec-14 19:33N 44°43' E 020°59'0 0.0
2016-Dec-14 18:33N 44°43' E 020°59'0 0.0
2016-Dec-14 17:33N 44°43' E 020°59'0 0.0
2016-Dec-14 16:34N 44°43' E 020°59'0 0.0
2016-Dec-14 15:34N 44°43' E 020°59'0 0.0
2016-Dec-14 14:33N 44°43' E 020°59'0 0.0
2016-Dec-14 13:33N 44°43' E 020°59'0 0.0
2016-Dec-14 12:33N 44°43' E 020°59'0 0.0
2016-Dec-14 11:33N 44°43' E 020°59'0 0.0
2016-Dec-14 10:33N 44°43' E 020°59'0 0.0
2016-Dec-14 09:33N 44°43' E 020°59'0 0.0
2016-Dec-14 08:33N 44°43' E 020°59'0 0.0
2016-Dec-13 22:33N 44°43' E 020°59'0 0.0
2016-Dec-13 21:33N 44°43' E 020°59'0 0.0
2016-Dec-13 20:33N 44°43' E 020°59'0 0.0
2016-Dec-13 19:33N 44°43' E 020°59'0 0.0
2016-Dec-13 18:33N 44°43' E 020°59'0 0.0
2016-Dec-13 17:33N 44°43' E 020°59'0 0.0
2016-Dec-13 16:33N 44°43' E 020°59'0 0.0
2016-Dec-13 15:34N 44°43' E 020°59'0 0.0
2016-Dec-13 14:33N 44°43' E 020°59'0 0.0
2016-Dec-13 13:33N 44°43' E 020°59'0 0.0
2016-Dec-13 12:33N 44°43' E 020°59'0 0.0
2016-Dec-13 11:33N 44°43' E 020°59'0 0.0
2016-Dec-13 10:33N 44°43' E 020°59'0 0.0
2016-Dec-13 09:32N 44°43' E 020°59'0 0.0
2016-Dec-13 08:32N 44°43' E 020°59'0 0.0
2016-Dec-13 02:27N 44°43' E 020°59'0 0.0
2016-Dec-13 00:27N 44°43' E 020°59'0 0.0
2016-Dec-12 22:33N 44°43' E 020°59'0 0.0
2016-Dec-12 21:34N 44°43' E 020°59'0 0.0
2016-Dec-12 20:33N 44°43' E 020°59'0 0.0
2016-Dec-12 19:33N 44°43' E 020°59'0 0.0
2016-Dec-12 18:33N 44°43' E 020°59'0 0.0
2016-Dec-12 17:33N 44°43' E 020°59'0 0.0
2016-Dec-12 16:33N 44°43' E 020°59'0 0.0
2016-Dec-12 15:33N 44°43' E 020°59'0 0.0
2016-Dec-12 14:33N 44°43' E 020°59'0 0.0
2016-Dec-12 13:33N 44°43' E 020°59'0 0.0
2016-Dec-12 12:33N 44°43' E 020°59'0 0.0
2016-Dec-12 11:19N 44°43' E 020°59'0 0.0
2016-Dec-12 10:33N 44°43' E 020°59'0 0.0
2016-Dec-12 09:33N 44°43' E 020°59'0 0.0
2016-Dec-12 08:33N 44°43' E 020°59'0 0.0
2016-Dec-12 07:33N 44°43' E 020°59'0 0.0
2016-Dec-12 06:34N 44°43' E 020°59'0 0.0
2016-Dec-12 05:34N 44°43' E 020°59'0 0.0
2016-Dec-12 04:34N 44°43' E 020°59'0 0.0
2016-Dec-12 03:34N 44°43' E 020°59'0 0.0
2016-Dec-12 02:34N 44°43' E 020°59'0 0.0
2016-Dec-12 01:34N 44°43' E 020°59'0 0.0
2016-Dec-12 00:33N 44°43' E 020°59'0 0.0
2016-Dec-11 23:33N 44°43' E 020°59'0 0.0
2016-Dec-11 22:33N 44°43' E 020°59'0 0.0
2016-Dec-11 21:33N 44°43' E 020°59'0 0.0
2016-Dec-11 20:33N 44°43' E 020°59'0 0.0
2016-Dec-11 19:33N 44°43' E 020°59'0 0.0
2016-Dec-11 15:33N 44°43' E 020°59'0 0.0
2016-Dec-11 14:33N 44°43' E 020°59'0 0.0
2016-Dec-11 13:33N 44°43' E 020°59'0 0.0
2016-Dec-11 12:33N 44°43' E 020°59'0 0.0
2016-Dec-11 11:33N 44°43' E 020°59'0 0.0
2016-Dec-11 09:33N 44°43' E 020°59'0 0.0
2016-Dec-10 20:04N 44°43' E 020°59'0 0.0
2016-Dec-10 19:33N 44°43' E 020°59'0 0.0
2016-Dec-10 18:33N 44°43' E 020°59'0 0.0
2016-Dec-10 17:33N 44°43' E 020°59'0 0.2
2016-Dec-10 16:28N 44°43' E 020°59'1 1.3
2016-Dec-10 15:33N 44°42' E 020°58'0 0.0
2016-Dec-10 14:33N 44°42' E 020°58'0 0.0
2016-Dec-10 13:33N 44°42' E 020°58'0 0.0
2016-Dec-10 12:33N 44°42' E 020°58'0 0.0
2016-Dec-10 11:33N 44°42' E 020°58'0 0.0
2016-Dec-10 10:33N 44°42' E 020°58'0 0.0
2016-Dec-10 09:33N 44°42' E 020°58'0 0.0
2016-Dec-10 08:33N 44°42' E 020°58'0 0.0
2016-Dec-10 07:32N 44°42' E 020°58'0 0.0
2016-Dec-10 06:33N 44°42' E 020°58'0 0.0
2016-Dec-10 05:31N 44°42' E 020°58'0 0.1
2016-Dec-10 04:33N 44°42' E 020°58'1 0.8
2016-Dec-10 03:11N 44°43' E 020°59'1 1.8
2016-Dec-10 02:32N 44°42' E 020°58'0 0.0
2016-Dec-10 01:33N 44°42' E 020°58'0 0.0
2016-Dec-10 00:33N 44°42' E 020°58'0 0.0
2016-Dec-09 23:33N 44°42' E 020°58'0 0.0
2016-Dec-09 22:33N 44°42' E 020°58'0 0.0
2016-Dec-09 21:33N 44°42' E 020°58'0 0.0
2016-Dec-09 20:33N 44°42' E 020°58'0 0.0
2016-Dec-09 19:33N 44°42' E 020°58'0 0.0
2016-Dec-09 18:34N 44°42' E 020°58'0 0.0
2016-Dec-09 17:33N 44°42' E 020°58'0 0.0
2016-Dec-09 16:33N 44°42' E 020°58'0 0.0
2016-Dec-09 15:33N 44°42' E 020°58'0 0.0
2016-Dec-09 14:33N 44°42' E 020°58'0 0.0
2016-Dec-09 13:33N 44°42' E 020°58'0 0.1
2016-Dec-09 12:29N 44°42' E 020°58'1 0.4
2016-Dec-09 10:30N 44°42' E 020°58'0 0.0
2016-Dec-09 09:33N 44°42' E 020°58'0 0.0
2016-Dec-09 08:33N 44°42' E 020°58'0 0.0
2016-Dec-09 07:33N 44°42' E 020°58'0 0.0
2016-Dec-09 06:32N 44°42' E 020°58'0 0.0
2016-Dec-09 05:33N 44°42' E 020°58'0 0.0
2016-Dec-09 04:33N 44°42' E 020°58'0 0.0
2016-Dec-09 03:33N 44°42' E 020°58'0 0.0
2016-Dec-09 02:33N 44°42' E 020°58'0 0.0
2016-Dec-09 01:33N 44°42' E 020°58'0 0.0
2016-Dec-09 00:33N 44°42' E 020°58'0 0.0
2016-Dec-08 23:33N 44°42' E 020°58'0 0.0
2016-Dec-08 22:33N 44°42' E 020°58'0 0.0
2016-Dec-08 21:33N 44°42' E 020°58'0 0.0
2016-Dec-08 20:34N 44°42' E 020°58'0 0.0
2016-Dec-08 19:33N 44°42' E 020°58'  
Track history (hours):
 
Tides and Currents Weather Stations Pressure Air Temp Water Temp Dewpoint Dewpoint Depression Visibility Wind Speed Wind Dir Waves Ship Positions

Boryslau

Last reported at 2016-Dec-18 18:33 UTC. Time now 2017-Jan-20 14:05 UTC.
Position N 44°42' E 022°29'.
Warning: this ship's position is 32 days out of date.

Length 86 m; draft 1.9 m.

Type: Cargo ship. MMSI: 272088700.

Date/timePositionNaut miles runAvg speedWind from/ knotsBaromVisibWave heightAir tempDewpointWater temp
2016-Dec-18 18:33N 44°42' E 022°29'0 0.4
2016-Dec-18 17:33N 44°42' E 022°29'5 5.2
2016-Dec-18 16:33N 44°41' E 022°22'13 5.7
2016-Dec-18 14:20N 44°30' E 022°12'4 4.7
2016-Dec-18 13:33N 44°29' E 022°07'6 5.8
2016-Dec-18 12:33N 44°33' E 022°02'25 4.9
2016-Dec-18 07:20N 44°46' E 021°31'0 0.0
2016-Dec-18 06:30N 44°46' E 021°31'0 0.0
2016-Dec-18 05:30N 44°46' E 021°31'0 0.0
2016-Dec-18 04:33N 44°46' E 021°31'0 0.2
2016-Dec-18 03:33N 44°46' E 021°31'0 0.0
2016-Dec-18 02:33N 44°46' E 021°31'0 0.0
2016-Dec-18 01:33N 44°46' E 021°31'1 0.9
2016-Dec-18 00:33N 44°46' E 021°30'6 5.4
2016-Dec-17 23:22N 44°49' E 021°22'5 6.1
2016-Dec-17 22:33N 44°47' E 021°15'6 6.0
2016-Dec-17 21:33N 44°44' E 021°08'5 5.4
2016-Dec-17 20:33N 44°43' E 021°01'1 1.1
2016-Dec-17 19:34N 44°43' E 020°59'1 1.4
2016-Dec-17 18:33N 44°42' E 020°58'0 0.0
2016-Dec-17 17:33N 44°42' E 020°58'0 0.0
2016-Dec-17 16:33N 44°42' E 020°58'0 0.0
2016-Dec-17 15:33N 44°42' E 020°58'0 0.0
2016-Dec-17 14:33N 44°42' E 020°58'0 0.0
2016-Dec-17 13:33N 44°42' E 020°58'0 0.0
2016-Dec-17 12:33N 44°42' E 020°58'0 0.0
2016-Dec-17 11:33N 44°42' E 020°58'0 0.0
2016-Dec-17 10:34N 44°42' E 020°58'0 0.0
2016-Dec-17 09:33N 44°42' E 020°58'1 1.4
2016-Dec-17 08:33N 44°43' E 020°59'0 0.0
2016-Dec-17 07:33N 44°43' E 020°59'0 0.0
2016-Dec-17 06:33N 44°43' E 020°59'0 0.0
2016-Dec-17 05:33N 44°43' E 020°59'0 0.0
2016-Dec-17 04:33N 44°43' E 020°59'0 0.0
2016-Dec-17 03:22N 44°43' E 020°59'0 0.0
2016-Dec-17 02:33N 44°43' E 020°59'0 0.0
2016-Dec-17 01:33N 44°43' E 020°59'0 0.0
2016-Dec-17 00:33N 44°43' E 020°59'0 0.0
2016-Dec-16 23:33N 44°43' E 020°59'0 0.0
2016-Dec-16 22:34N 44°43' E 020°59'0 0.0
2016-Dec-16 21:33N 44°43' E 020°59'0 0.0
2016-Dec-16 20:33N 44°43' E 020°59'0 0.0
2016-Dec-16 19:33N 44°43' E 020°59'0 0.0
2016-Dec-16 18:33N 44°43' E 020°59'0 0.0
2016-Dec-16 17:33N 44°43' E 020°59'0 0.0
2016-Dec-16 16:33N 44°43' E 020°59'0 0.0
2016-Dec-16 15:34N 44°43' E 020°59'0 0.0
2016-Dec-16 14:28N 44°43' E 020°59'0 0.0
2016-Dec-16 13:33N 44°43' E 020°59'0 0.0
2016-Dec-16 12:33N 44°43' E 020°59'0 0.0
2016-Dec-16 11:33N 44°43' E 020°59'0 0.0
2016-Dec-16 10:33N 44°43' E 020°59'0 0.0
2016-Dec-16 09:33N 44°43' E 020°59'0 0.0
2016-Dec-15 22:33N 44°43' E 020°59'0 0.0
2016-Dec-15 21:33N 44°43' E 020°59'0 0.0
2016-Dec-15 20:33N 44°43' E 020°59'0 0.0
2016-Dec-15 19:33N 44°43' E 020°59'0 0.0
2016-Dec-15 18:33N 44°43' E 020°59'0 0.0
2016-Dec-15 17:33N 44°43' E 020°59'0 0.0
2016-Dec-15 16:33N 44°43' E 020°59'0 0.0
2016-Dec-15 15:33N 44°43' E 020°59'0 0.0
2016-Dec-15 14:34N 44°43' E 020°59'0 0.0
2016-Dec-15 13:33N 44°43' E 020°59'0 0.0
2016-Dec-15 12:33N 44°43' E 020°59'0 0.0
2016-Dec-15 11:33N 44°43' E 020°59'0 0.0
2016-Dec-15 10:33N 44°43' E 020°59'0 0.0
2016-Dec-15 09:33N 44°43' E 020°59'0 0.0
2016-Dec-15 08:33N 44°43' E 020°59'0 0.0
2016-Dec-14 22:27N 44°43' E 020°59'0 0.0
2016-Dec-14 21:33N 44°43' E 020°59'0 0.0
2016-Dec-14 20:34N 44°43' E 020°59'0 0.0
2016-Dec-14 19:33N 44°43' E 020°59'0 0.0
2016-Dec-14 18:33N 44°43' E 020°59'0 0.0
2016-Dec-14 17:33N 44°43' E 020°59'0 0.0
2016-Dec-14 16:34N 44°43' E 020°59'0 0.0
2016-Dec-14 15:34N 44°43' E 020°59'0 0.0
2016-Dec-14 14:33N 44°43' E 020°59'0 0.0
2016-Dec-14 13:33N 44°43' E 020°59'0 0.0
2016-Dec-14 12:33N 44°43' E 020°59'0 0.0
2016-Dec-14 11:33N 44°43' E 020°59'0 0.0
2016-Dec-14 10:33N 44°43' E 020°59'0 0.0
2016-Dec-14 09:33N 44°43' E 020°59'0 0.0
2016-Dec-14 08:33N 44°43' E 020°59'0 0.0
2016-Dec-13 22:33N 44°43' E 020°59'0 0.0
2016-Dec-13 21:33N 44°43' E 020°59'0 0.0
2016-Dec-13 20:33N 44°43' E 020°59'0 0.0
2016-Dec-13 19:33N 44°43' E 020°59'0 0.0
2016-Dec-13 18:33N 44°43' E 020°59'0 0.0
2016-Dec-13 17:33N 44°43' E 020°59'0 0.0
2016-Dec-13 16:33N 44°43' E 020°59'0 0.0
2016-Dec-13 15:34N 44°43' E 020°59'0 0.0
2016-Dec-13 14:33N 44°43' E 020°59'0 0.0
2016-Dec-13 13:33N 44°43' E 020°59'0 0.0
2016-Dec-13 12:33N 44°43' E 020°59'0 0.0
2016-Dec-13 11:33N 44°43' E 020°59'0 0.0
2016-Dec-13 10:33N 44°43' E 020°59'0 0.0
2016-Dec-13 09:32N 44°43' E 020°59'0 0.0
2016-Dec-13 08:32N 44°43' E 020°59'0 0.0
2016-Dec-13 02:27N 44°43' E 020°59'0 0.0
2016-Dec-13 00:27N 44°43' E 020°59'0 0.0
2016-Dec-12 22:33N 44°43' E 020°59'0 0.0
2016-Dec-12 21:34N 44°43' E 020°59'0 0.0
2016-Dec-12 20:33N 44°43' E 020°59'0 0.0
2016-Dec-12 19:33N 44°43' E 020°59'0 0.0
2016-Dec-12 18:33N 44°43' E 020°59'0 0.0
2016-Dec-12 17:33N 44°43' E 020°59'0 0.0
2016-Dec-12 16:33N 44°43' E 020°59'0 0.0
2016-Dec-12 15:33N 44°43' E 020°59'0 0.0
2016-Dec-12 14:33N 44°43' E 020°59'0 0.0
2016-Dec-12 13:33N 44°43' E 020°59'0 0.0
2016-Dec-12 12:33N 44°43' E 020°59'0 0.0
2016-Dec-12 11:19N 44°43' E 020°59'0 0.0
2016-Dec-12 10:33N 44°43' E 020°59'0 0.0
2016-Dec-12 09:33N 44°43' E 020°59'0 0.0
2016-Dec-12 08:33N 44°43' E 020°59'0 0.0
2016-Dec-12 07:33N 44°43' E 020°59'0 0.0
2016-Dec-12 06:34N 44°43' E 020°59'0 0.0
2016-Dec-12 05:34N 44°43' E 020°59'0 0.0
2016-Dec-12 04:34N 44°43' E 020°59'0 0.0
2016-Dec-12 03:34N 44°43' E 020°59'0 0.0
2016-Dec-12 02:34N 44°43' E 020°59'0 0.0
2016-Dec-12 01:34N 44°43' E 020°59'0 0.0
2016-Dec-12 00:33N 44°43' E 020°59'0 0.0
2016-Dec-11 23:33N 44°43' E 020°59'0 0.0
2016-Dec-11 22:33N 44°43' E 020°59'0 0.0
2016-Dec-11 21:33N 44°43' E 020°59'0 0.0
2016-Dec-11 20:33N 44°43' E 020°59'0 0.0
2016-Dec-11 19:33N 44°43' E 020°59'0 0.0
2016-Dec-11 15:33N 44°43' E 020°59'0 0.0
2016-Dec-11 14:33N 44°43' E 020°59'0 0.0
2016-Dec-11 13:33N 44°43' E 020°59'0 0.0
2016-Dec-11 12:33N 44°43' E 020°59'0 0.0
2016-Dec-11 11:33N 44°43' E 020°59'0 0.0
2016-Dec-11 09:33N 44°43' E 020°59'0 0.0
2016-Dec-10 20:04N 44°43' E 020°59'0 0.0
2016-Dec-10 19:33N 44°43' E 020°59'0 0.0
2016-Dec-10 18:33N 44°43' E 020°59'0 0.0
2016-Dec-10 17:33N 44°43' E 020°59'0 0.2
2016-Dec-10 16:28N 44°43' E 020°59'1 1.3
2016-Dec-10 15:33N 44°42' E 020°58'0 0.0
2016-Dec-10 14:33N 44°42' E 020°58'0 0.0
2016-Dec-10 13:33N 44°42' E 020°58'0 0.0
2016-Dec-10 12:33N 44°42' E 020°58'0 0.0
2016-Dec-10 11:33N 44°42' E 020°58'0 0.0
2016-Dec-10 10:33N 44°42' E 020°58'0 0.0
2016-Dec-10 09:33N 44°42' E 020°58'0 0.0
2016-Dec-10 08:33N 44°42' E 020°58'0 0.0
2016-Dec-10 07:32N 44°42' E 020°58'0 0.0
2016-Dec-10 06:33N 44°42' E 020°58'0 0.0
2016-Dec-10 05:31N 44°42' E 020°58'0 0.1
2016-Dec-10 04:33N 44°42' E 020°58'1 0.8
2016-Dec-10 03:11N 44°43' E 020°59'1 1.8
2016-Dec-10 02:32N 44°42' E 020°58'0 0.0
2016-Dec-10 01:33N 44°42' E 020°58'0 0.0
2016-Dec-10 00:33N 44°42' E 020°58'0 0.0
2016-Dec-09 23:33N 44°42' E 020°58'0 0.0
2016-Dec-09 22:33N 44°42' E 020°58'0 0.0
2016-Dec-09 21:33N 44°42' E 020°58'0 0.0
2016-Dec-09 20:33N 44°42' E 020°58'0 0.0
2016-Dec-09 19:33N 44°42' E 020°58'0 0.0
2016-Dec-09 18:34N 44°42' E 020°58'0 0.0
2016-Dec-09 17:33N 44°42' E 020°58'0 0.0
2016-Dec-09 16:33N 44°42' E 020°58'0 0.0
2016-Dec-09 15:33N 44°42' E 020°58'0 0.0
2016-Dec-09 14:33N 44°42' E 020°58'0 0.0
2016-Dec-09 13:33N 44°42' E 020°58'0 0.1
2016-Dec-09 12:29N 44°42' E 020°58'1 0.4
2016-Dec-09 10:30N 44°42' E 020°58'0 0.0
2016-Dec-09 09:33N 44°42' E 020°58'0 0.0
2016-Dec-09 08:33N 44°42' E 020°58'0 0.0
2016-Dec-09 07:33N 44°42' E 020°58'0 0.0
2016-Dec-09 06:32N 44°42' E 020°58'0 0.0
2016-Dec-09 05:33N 44°42' E 020°58'0 0.0
2016-Dec-09 04:33N 44°42' E 020°58'0 0.0
2016-Dec-09 03:33N 44°42' E 020°58'0 0.0
2016-Dec-09 02:33N 44°42' E 020°58'0 0.0
2016-Dec-09 01:33N 44°42' E 020°58'0 0.0
2016-Dec-09 00:33N 44°42' E 020°58'0 0.0
2016-Dec-08 23:33N 44°42' E 020°58'0 0.0
2016-Dec-08 22:33N 44°42' E 020°58'0 0.0
2016-Dec-08 21:33N 44°42' E 020°58'0 0.0
2016-Dec-08 20:34N 44°42' E 020°58'0 0.0
2016-Dec-08 19:33N 44°42' E 020°58'  

Dump ship's entire track history